Time;durP1;ratioP1;P1;durP2;ratioP2;P2;SDS_P1;SDS_P2;PMS_P1;PMS_P2;Temp;Humidity;BMP_temperature;BMP_pressure;BME280_temperature;BME280_humidity;BME280_pressure;Samples;Min_cycle;Max_cycle;Signal;HPM_P1;HPM_P2
2022/11/17 00:00:14;;;;;;;33.70;21.98;;;;;;;;;;5066113;28;20120;-66
2022/11/17 00:02:40;;;;;;;31.90;21.48;;;;;;;;;;5069658;28;20509;-68
2022/11/17 00:05:06;;;;;;;32.63;21.63;;;;;;;;;;5042002;28;20045;-68
2022/11/17 00:07:32;;;;;;;33.35;21.33;;;;;;;;;;5066388;28;20446;-67
2022/11/17 00:09:58;;;;;;;28.77;21.33;;;;;;;;;;5075882;28;20048;-68
2022/11/17 00:15:08;;;;;;;33.53;20.48;;;;;;;;;;5067297;28;20049;-67
2022/11/17 00:17:34;;;;;;;28.67;19.98;;;;;;;;;;5062339;28;20041;-69
2022/11/17 00:22:45;;;;;;;30.48;20.35;;;;;;;;;;5064419;28;20495;-68
2022/11/17 00:25:11;;;;;;;29.08;20.08;;;;;;;;;;5064047;28;20058;-67
2022/11/17 00:27:37;;;;;;;29.73;19.90;;;;;;;;;;5068540;28;20122;-69
2022/11/17 00:30:03;;;;;;;34.72;20.88;;;;;;;;;;5068177;28;20430;-68
2022/11/17 00:35:14;;;;;;;31.05;19.20;;;;;;;;;;5065283;28;20061;-68
2022/11/17 00:40:25;;;;;;;26.20;18.60;;;;;;;;;;5066317;28;20058;-68
2022/11/17 00:42:51;;;;;;;29.08;18.88;;;;;;;;;;5069627;28;20073;-68
2022/11/17 00:45:17;;;;;;;27.67;18.70;;;;;;;;;;5075956;28;20756;-69
2022/11/17 00:47:43;;;;;;;27.50;18.65;;;;;;;;;;5069548;28;20054;-68
2022/11/17 00:50:09;;;;;;;30.02;20.13;;;;;;;;;;5068361;28;20407;-67
2022/11/17 00:52:35;;;;;;;25.98;19.45;;;;;;;;;;5064235;28;20113;-69
2022/11/17 00:55:01;;;;;;;24.95;17.60;;;;;;;;;;5064017;28;20095;-68
2022/11/17 00:57:27;;;;;;;25.13;17.73;;;;;;;;;;5064384;28;20380;-66
2022/11/17 00:59:53;;;;;;;25.55;17.73;;;;;;;;;;5072408;28;20093;-67
2022/11/17 01:02:19;;;;;;;30.55;18.77;;;;;;;;;;5063523;28;20410;-67
2022/11/17 01:04:45;;;;;;;24.23;17.90;;;;;;;;;;5065214;28;20048;-68
2022/11/17 01:07:11;;;;;;;25.45;17.77;;;;;;;;;;5060398;28;20049;-68
2022/11/17 01:09:37;;;;;;;23.25;17.10;;;;;;;;;;5063927;28;20618;-68
2022/11/17 01:12:03;;;;;;;22.95;17.33;;;;;;;;;;5072410;28;20094;-68
2022/11/17 01:14:31;;;;;;;25.13;16.85;;;;;;;;;;5067343;28;20510;-69
2022/11/17 01:16:57;;;;;;;25.33;17.65;;;;;;;;;;5063562;28;20063;-68
2022/11/17 01:19:23;;;;;;;21.15;16.42;;;;;;;;;;5060564;28;20044;-68
2022/11/17 01:21:49;;;;;;;22.05;15.65;;;;;;;;;;5055671;28;20438;-68
2022/11/17 01:24:16;;;;;;;22.33;16.42;;;;;;;;;;5063620;28;20047;-68
2022/11/17 01:26:42;;;;;;;22.52;16.20;;;;;;;;;;5054044;28;20048;-67
2022/11/17 01:29:10;;;;;;;22.08;15.48;;;;;;;;;;5065030;28;20048;-66
2022/11/17 01:31:38;;;;;;;20.80;15.52;;;;;;;;;;5049425;28;20523;-65
2022/11/17 01:34:04;;;;;;;23.15;16.02;;;;;;;;;;5062471;28;20056;-65
2022/11/17 01:37:17;;;;;;;23.38;16.60;;;;;;;;;;5063929;28;20460;-66
2022/11/17 01:39:21;;;;;;;24.55;16.60;;;;;;;;;;5061988;28;20045;-66
2022/11/17 01:41:47;;;;;;;20.15;16.08;;;;;;;;;;5056019;28;20060;-67
2022/11/17 01:44:32;;;;;;;24.27;16.55;;;;;;;;;;5063759;28;20049;-66
2022/11/17 01:46:58;;;;;;;23.45;16.25;;;;;;;;;;5055834;28;20037;-67
2022/11/17 01:49:27;;;;;;;23.08;16.50;;;;;;;;;;5064003;28;20052;-66
2022/11/17 01:51:59;;;;;;;25.10;17.42;;;;;;;;;;5062985;28;20041;-67
2022/11/17 01:54:25;;;;;;;;;;;;;;;;;;5063137;28;20044;-65
2022/11/17 01:56:53;;;;;;;29.60;16.38;;;;;;;;;;5068726;28;20007;-68
2022/11/17 01:59:22;;;;;;;24.20;17.27;;;;;;;;;;5063881;28;20056;-67
2022/11/17 02:01:54;;;;;;;24.90;16.65;;;;;;;;;;5062945;28;20060;-68
2022/11/17 02:04:20;;;;;;;;;;;;;;;;;;5068073;28;20040;-69
2022/11/17 02:06:46;;;;;;;21.70;16.52;;;;;;;;;;5065983;28;19966;-68
2022/11/17 02:09:12;;;;;;;23.63;16.67;;;;;;;;;;5072779;28;20082;-69
2022/11/17 02:11:38;;;;;;;26.05;17.35;;;;;;;;;;5057715;28;20040;-69
2022/11/17 02:14:05;;;;;;;26.45;16.88;;;;;;;;;;5072110;28;20047;-69
2022/11/17 02:16:31;;;;;;;22.65;16.23;;;;;;;;;;5060474;28;20052;-69
2022/11/17 02:18:57;;;;;;;24.55;15.63;;;;;;;;;;5059430;28;20044;-70
2022/11/17 02:21:26;;;;;;;28.05;17.65;;;;;;;;;;5056683;28;20051;-70
2022/11/17 02:24:01;;;;;;;23.48;16.88;;;;;;;;;;5068490;28;20048;-68
2022/11/17 02:26:53;;;;;;;21.73;16.33;;;;;;;;;;5062989;28;20044;-70
2022/11/17 02:29:25;;;;;;;27.98;17.38;;;;;;;;;;5037961;28;20499;-70
2022/11/17 02:32:06;;;;;;;23.55;16.40;;;;;;;;;;5059278;28;20079;-70
2022/11/17 02:34:44;;;;;;;25.33;16.75;;;;;;;;;;5061659;28;20453;-71
2022/11/17 02:37:18;;;;;;;27.30;17.10;;;;;;;;;;5058873;28;20045;-67
2022/11/17 02:39:53;;;;;;;23.73;17.23;;;;;;;;;;5060620;28;20068;-71
2022/11/17 02:44:02;;;;;;;30.50;18.23;;;;;;;;;;5065422;28;20043;-72
2022/11/17 02:45:13;;;;;;;28.67;17.98;;;;;;;;;;5064839;28;20697;-70
2022/11/17 02:47:42;;;;;;;27.05;17.65;;;;;;;;;;5055911;28;20045;-70
2022/11/17 02:50:09;;;;;;;26.48;17.00;;;;;;;;;;5061398;28;20041;-71
2022/11/17 02:52:35;;;;;;;27.98;17.70;;;;;;;;;;5058121;28;20056;-71
2022/11/17 02:55:03;;;;;;;24.35;16.08;;;;;;;;;;5058936;28;20095;-72
2022/11/17 02:57:30;;;;;;;25.27;17.35;;;;;;;;;;5054586;28;20427;-71
2022/11/17 02:59:58;;;;;;;22.83;16.92;;;;;;;;;;5047284;28;20087;-71
2022/11/17 03:02:42;;;;;;;25.60;16.92;;;;;;;;;;5053977;28;20460;-71
2022/11/17 03:05:09;;;;;;;22.80;16.10;;;;;;;;;;5064066;28;20131;-70
2022/11/17 03:07:35;;;;;;;21.77;16.52;;;;;;;;;;5055478;28;20526;-70
2022/11/17 03:10:27;;;;;;;22.55;15.88;;;;;;;;;;5061836;28;20052;-71
2022/11/17 03:12:59;;;;;;;24.50;15.40;;;;;;;;;;5060480;28;20072;-71
2022/11/17 03:15:35;;;;;;;23.48;15.98;;;;;;;;;;5063069;28;20079;-71
2022/11/17 03:18:10;;;;;;;24.58;15.32;;;;;;;;;;5062045;28;20127;-71
2022/11/17 03:21:02;;;;;;;22.35;15.45;;;;;;;;;;5053249;28;20072;-70
2022/11/17 03:23:32;;;;;;;24.95;16.60;;;;;;;;;;5033196;28;20151;-71
2022/11/17 03:26:00;;;;;;;23.02;16.10;;;;;;;;;;5061073;28;20044;-71
2022/11/17 03:28:28;;;;;;;23.05;16.67;;;;;;;;;;5062578;28;20052;-70
2022/11/17 03:30:55;;;;;;;22.48;16.20;;;;;;;;;;5055281;28;20047;-71
2022/11/17 03:33:22;;;;;;;23.15;15.70;;;;;;;;;;5066809;28;20039;-72
2022/11/17 03:35:54;;;;;;;21.60;16.42;;;;;;;;;;5060815;28;20048;-71
2022/11/17 03:38:23;;;;;;;21.73;16.65;;;;;;;;;;5061628;28;20044;-69
2022/11/17 03:40:50;;;;;;;23.98;17.35;;;;;;;;;;5062365;28;20095;-70
2022/11/17 03:43:18;;;;;;;21.67;16.00;;;;;;;;;;5054885;28;20095;-71
2022/11/17 03:45:46;;;;;;;18.13;15.35;;;;;;;;;;5061678;28;20479;-71
2022/11/17 03:48:18;;;;;;;23.33;15.75;;;;;;;;;;5067213;28;20033;-71
2022/11/17 03:50:52;;;;;;;24.20;16.75;;;;;;;;;;5073465;28;20041;-71
2022/11/17 03:53:18;;;;;;;21.00;15.48;;;;;;;;;;5052504;28;20092;-71
2022/11/17 03:56:03;;;;;;;22.20;15.30;;;;;;;;;;5057963;28;20080;-71
2022/11/17 03:58:30;;;;;;;23.77;15.85;;;;;;;;;;5070470;28;20048;-69
2022/11/17 04:00:58;;;;;;;19.33;15.27;;;;;;;;;;5064394;28;20487;-71
2022/11/17 04:03:28;;;;;;;22.20;15.50;;;;;;;;;;5063477;28;20041;-72
2022/11/17 04:05:54;;;;;;;25.42;16.05;;;;;;;;;;5062469;28;20139;-71
2022/11/17 04:08:22;;;;;;;19.23;15.18;;;;;;;;;;5084793;28;20105;-72
2022/11/17 04:16:18;;;;;;;20.83;15.25;;;;;;;;;;5066810;28;20048;-68
2022/11/17 04:18:44;;;;;;;20.17;14.25;;;;;;;;;;5067157;28;20055;-68
2022/11/17 04:21:10;;;;;;;21.58;14.70;;;;;;;;;;5064412;28;20045;-68
2022/11/17 04:23:36;;;;;;;21.83;15.23;;;;;;;;;;5068567;28;20045;-69
2022/11/17 04:28:48;;;;;;;20.77;14.93;;;;;;;;;;5060639;28;20385;-68
2022/11/17 04:31:14;;;;;;;19.95;14.68;;;;;;;;;;5063400;28;20094;-70
2022/11/17 04:33:41;;;;;;;20.80;14.90;;;;;;;;;;5060250;28;20045;-70
2022/11/17 04:36:07;;;;;;;16.80;13.52;;;;;;;;;;5055773;28;20045;-68
2022/11/17 04:38:34;;;;;;;18.65;14.25;;;;;;;;;;5067208;28;20037;-68
2022/11/17 04:43:49;;;;;;;15.77;13.05;;;;;;;;;;5066546;28;20040;-68
2022/11/17 04:46:16;;;;;;;17.50;12.95;;;;;;;;;;5062383;28;20131;-68
2022/11/17 04:48:42;;;;;;;16.25;13.25;;;;;;;;;;5065147;28;20055;-69
2022/11/17 04:51:08;;;;;;;17.08;13.10;;;;;;;;;;5065301;28;20040;-71
2022/11/17 04:53:34;;;;;;;16.27;13.32;;;;;;;;;;5062435;28;20041;-70
2022/11/17 04:56:01;;;;;;;14.82;11.95;;;;;;;;;;5053084;28;20045;-70
2022/11/17 04:58:27;;;;;;;17.35;11.98;;;;;;;;;;5065693;28;20071;-70
2022/11/17 05:00:53;;;;;;;15.30;12.48;;;;;;;;;;5074312;28;20130;-71
2022/11/17 05:03:19;;;;;;;16.40;12.13;;;;;;;;;;5058778;28;20044;-70
2022/11/17 05:05:48;;;;;;;15.02;12.38;;;;;;;;;;5059747;28;20403;-70
2022/11/17 05:08:14;;;;;;;13.80;11.30;;;;;;;;;;5062388;28;20079;-69
2022/11/17 05:13:25;;;;;;;15.55;11.15;;;;;;;;;;5061235;28;20049;-69
2022/11/17 05:18:40;;;;;;;16.30;11.18;;;;;;;;;;5062294;28;20041;-69
2022/11/17 05:21:06;;;;;;;15.48;11.55;;;;;;;;;;5056242;28;20124;-69
2022/11/17 05:26:17;;;;;;;13.88;11.32;;;;;;;;;;5059604;28;20435;-71
2022/11/17 05:28:43;;;;;;;14.05;10.98;;;;;;;;;;5069547;28;20131;-69
2022/11/17 05:31:09;;;;;;;14.20;12.00;;;;;;;;;;5060220;28;20036;-71
2022/11/17 05:33:35;;;;;;;13.13;11.45;;;;;;;;;;5061079;28;20452;-70
2022/11/17 05:36:01;;;;;;;16.48;11.43;;;;;;;;;;5060511;28;20044;-69
2022/11/17 05:38:27;;;;;;;12.75;11.18;;;;;;;;;;5062879;28;20044;-71
2022/11/17 05:40:53;;;;;;;14.13;11.68;;;;;;;;;;5062507;28;20041;-69
2022/11/17 05:43:19;;;;;;;13.02;10.75;;;;;;;;;;5060418;28;20551;-70
2022/11/17 05:45:45;;;;;;;13.70;11.88;;;;;;;;;;5062159;28;20037;-71
2022/11/17 05:48:12;;;;;;;14.10;11.27;;;;;;;;;;5059896;28;20051;-70
2022/11/17 05:50:38;;;;;;;12.18;10.90;;;;;;;;;;5077580;28;20055;-69
2022/11/17 05:53:04;;;;;;;13.38;11.43;;;;;;;;;;5066756;28;20045;-69
2022/11/17 05:55:30;;;;;;;14.57;10.95;;;;;;;;;;5055942;28;20101;-69
2022/11/17 05:57:58;;;;;;;10.95;9.68;;;;;;;;;;5053202;28;20039;-69
2022/11/17 06:00:24;;;;;;;11.55;9.73;;;;;;;;;;5064274;28;20491;-69
2022/11/17 06:02:52;;;;;;;12.82;10.50;;;;;;;;;;5056527;28;20557;-69
2022/11/17 06:05:18;;;;;;;13.98;10.52;;;;;;;;;;5059191;28;20052;-68
2022/11/17 06:07:44;;;;;;;11.18;9.75;;;;;;;;;;5069385;28;20079;-69
2022/11/17 06:10:10;;;;;;;11.05;9.95;;;;;;;;;;5063211;28;20052;-69
2022/11/17 06:12:36;;;;;;;11.43;9.93;;;;;;;;;;5058222;28;20068;-68
2022/11/17 06:15:02;;;;;;;11.38;9.82;;;;;;;;;;5058951;28;20056;-68
2022/11/17 06:17:31;;;;;;;10.35;9.25;;;;;;;;;;5061659;28;20040;-68
2022/11/17 06:20:01;;;;;;;11.13;9.93;;;;;;;;;;5057216;28;20047;-68
2022/11/17 06:22:29;;;;;;;16.70;10.85;;;;;;;;;;5048960;28;20495;-69
2022/11/17 06:24:55;;;;;;;11.85;9.38;;;;;;;;;;5065979;28;20041;-69
2022/11/17 06:27:21;;;;;;;11.57;8.93;;;;;;;;;;5066222;28;20091;-70
2022/11/17 06:29:47;;;;;;;10.50;9.45;;;;;;;;;;5061553;28;20045;-72
2022/11/17 06:32:14;;;;;;;10.15;8.73;;;;;;;;;;5064198;28;20040;-68
2022/11/17 06:34:40;;;;;;;10.38;9.05;;;;;;;;;;5063177;28;20485;-71
2022/11/17 06:37:06;;;;;;;9.65;8.65;;;;;;;;;;5059121;28;20123;-70
2022/11/17 06:39:32;;;;;;;10.27;9.00;;;;;;;;;;5065020;28;20170;-70
2022/11/17 06:41:58;;;;;;;10.38;9.27;;;;;;;;;;5070596;28;20452;-71
2022/11/17 06:44:24;;;;;;;11.45;9.10;;;;;;;;;;5066969;28;20063;-72
2022/11/17 06:46:50;;;;;;;9.80;8.25;;;;;;;;;;5055941;28;20041;-71
2022/11/17 06:49:16;;;;;;;9.82;8.48;;;;;;;;;;5057131;28;20113;-72
2022/11/17 06:51:42;;;;;;;9.35;8.45;;;;;;;;;;5057407;28;20056;-72
2022/11/17 06:54:09;;;;;;;11.32;10.23;;;;;;;;;;5057803;28;20044;-71
2022/11/17 06:56:35;;;;;;;13.35;12.00;;;;;;;;;;5061556;28;20135;-73
2022/11/17 06:59:01;;;;;;;12.02;10.07;;;;;;;;;;5065568;28;20044;-72
2022/11/17 07:01:27;;;;;;;12.90;10.07;;;;;;;;;;5074012;28;20048;-72
2022/11/17 07:03:53;;;;;;;13.82;10.35;;;;;;;;;;5064504;28;20101;-72
2022/11/17 07:06:19;;;;;;;10.20;9.20;;;;;;;;;;5067529;28;20047;-71
2022/11/17 07:08:45;;;;;;;10.23;9.10;;;;;;;;;;5063162;28;20060;-72
2022/11/17 07:11:13;;;;;;;10.30;8.90;;;;;;;;;;5055352;28;20136;-73
2022/11/17 07:13:39;;;;;;;9.55;8.55;;;;;;;;;;5061778;28;20047;-72
2022/11/17 07:16:07;;;;;;;11.82;8.70;;;;;;;;;;5063765;28;20123;-70
2022/11/17 07:18:33;;;;;;;11.48;8.90;;;;;;;;;;5061623;28;20056;-72
2022/11/17 07:21:00;;;;;;;12.18;9.00;;;;;;;;;;5064572;28;20141;-71
2022/11/17 07:23:26;;;;;;;11.02;9.50;;;;;;;;;;5061495;28;20040;-71
2022/11/17 07:25:52;;;;;;;14.25;9.55;;;;;;;;;;5066783;28;20221;-72
2022/11/17 07:28:19;;;;;;;11.52;9.43;;;;;;;;;;5074126;28;20193;-72
2022/11/17 07:30:45;;;;;;;10.60;9.38;;;;;;;;;;5063134;28;20274;-71
2022/11/17 07:33:12;;;;;;;11.65;10.02;;;;;;;;;;5065871;28;20044;-71
2022/11/17 07:35:38;;;;;;;12.77;10.07;;;;;;;;;;5069715;28;20464;-71
2022/11/17 07:38:04;;;;;;;11.63;10.07;;;;;;;;;;5060342;28;20064;-70
2022/11/17 07:40:30;;;;;;;13.73;10.60;;;;;;;;;;5072625;28;20120;-70
2022/11/17 07:42:57;;;;;;;14.63;10.68;;;;;;;;;;5062745;28;20048;-72
2022/11/17 07:45:23;;;;;;;11.93;9.43;;;;;;;;;;5060120;28;20044;-71
2022/11/17 07:47:54;;;;;;;14.40;11.63;;;;;;;;;;5068669;28;20049;-72
2022/11/17 07:50:20;;;;;;;14.35;10.55;;;;;;;;;;5083781;28;20098;-70
2022/11/17 07:52:47;;;;;;;16.02;11.57;;;;;;;;;;5048111;28;20048;-74
2022/11/17 07:55:13;;;;;;;13.13;11.07;;;;;;;;;;5050828;28;20058;-74
2022/11/17 07:57:39;;;;;;;12.57;10.68;;;;;;;;;;5066003;28;20049;-73
2022/11/17 08:00:05;;;;;;;15.18;10.75;;;;;;;;;;5059814;28;20048;-74
2022/11/17 08:02:31;;;;;;;12.50;9.80;;;;;;;;;;5062370;28;20131;-73
2022/11/17 08:04:57;;;;;;;13.07;10.85;;;;;;;;;;5060183;28;20664;-73
2022/11/17 08:07:23;;;;;;;13.25;10.98;;;;;;;;;;5075811;28;20553;-73
2022/11/17 08:09:49;;;;;;;12.05;9.50;;;;;;;;;;5063873;28;21041;-73
2022/11/17 08:12:16;;;;;;;12.98;10.63;;;;;;;;;;5061814;28;20127;-70
2022/11/17 08:14:42;;;;;;;12.10;10.40;;;;;;;;;;5063623;28;20199;-72
2022/11/17 08:17:08;;;;;;;10.73;9.63;;;;;;;;;;5060765;28;20494;-70
2022/11/17 08:19:34;;;;;;;15.23;10.85;;;;;;;;;;5059375;28;20052;-70
2022/11/17 08:22:00;;;;;;;12.00;9.98;;;;;;;;;;5065840;28;20052;-70
2022/11/17 08:24:26;;;;;;;12.07;10.10;;;;;;;;;;5058442;28;20041;-71
2022/11/17 08:26:52;;;;;;;12.15;10.52;;;;;;;;;;5067549;28;20386;-71
2022/11/17 08:29:18;;;;;;;12.70;10.10;;;;;;;;;;5042320;28;20059;-71
2022/11/17 08:31:45;;;;;;;13.25;10.15;;;;;;;;;;5061564;28;20040;-71
2022/11/17 08:34:14;;;;;;;12.15;10.15;;;;;;;;;;5060012;28;20046;-71
2022/11/17 08:36:40;;;;;;;12.30;10.52;;;;;;;;;;5060018;28;20164;-71
2022/11/17 08:39:06;;;;;;;11.27;10.07;;;;;;;;;;5063727;28;20407;-72
2022/11/17 08:41:32;;;;;;;17.13;13.82;;;;;;;;;;5058969;28;20538;-71
2022/11/17 08:43:58;;;;;;;12.85;11.55;;;;;;;;;;5059796;28;20040;-71
2022/11/17 08:46:25;;;;;;;17.60;14.57;;;;;;;;;;5062796;28;20070;-71
2022/11/17 08:48:51;;;;;;;16.73;13.35;;;;;;;;;;5046885;28;20392;-70
2022/11/17 08:51:17;;;;;;;16.30;13.48;;;;;;;;;;5059738;28;20059;-71
2022/11/17 08:53:43;;;;;;;19.90;17.40;;;;;;;;;;5058376;28;20048;-70
2022/11/17 08:56:11;;;;;;;12.90;11.38;;;;;;;;;;5062266;28;20066;-70
2022/11/17 08:58:41;;;;;;;11.40;9.45;;;;;;;;;;5061117;28;20040;-73
2022/11/17 09:01:08;;;;;;;19.40;15.95;;;;;;;;;;5061457;28;20040;-73
2022/11/17 09:03:34;;;;;;;11.70;9.90;;;;;;;;;;5062133;28;20044;-73
2022/11/17 09:06:01;;;;;;;30.60;27.70;;;;;;;;;;5061877;28;20246;-72
2022/11/17 09:08:27;;;;;;;12.93;11.63;;;;;;;;;;5059862;28;20550;-70
2022/11/17 09:10:53;;;;;;;13.82;11.27;;;;;;;;;;5057593;28;20517;-71
2022/11/17 09:13:19;;;;;;;11.38;9.52;;;;;;;;;;5059354;28;20052;-72
2022/11/17 09:15:46;;;;;;;16.23;13.00;;;;;;;;;;5057478;28;20100;-72
2022/11/17 09:18:12;;;;;;;12.07;10.82;;;;;;;;;;5056845;28;20052;-72
2022/11/17 09:20:38;;;;;;;12.20;10.38;;;;;;;;;;5060485;28;20048;-72
2022/11/17 09:23:04;;;;;;;10.65;9.57;;;;;;;;;;5059725;28;20077;-72
2022/11/17 09:25:31;;;;;;;10.48;9.38;;;;;;;;;;5060761;28;20045;-70
2022/11/17 09:27:57;;;;;;;16.52;14.95;;;;;;;;;;5057842;28;20052;-71
2022/11/17 09:30:23;;;;;;;13.90;8.75;;;;;;;;;;5057861;28;20093;-72
2022/11/17 09:32:49;;;;;;;9.95;8.90;;;;;;;;;;5058332;28;20064;-70
2022/11/17 09:35:15;;;;;;;8.63;7.80;;;;;;;;;;5060448;28;20055;-70
2022/11/17 09:37:41;;;;;;;8.48;7.68;;;;;;;;;;5058816;28;20048;-75
2022/11/17 09:40:13;;;;;;;7.65;6.88;;;;;;;;;;5057453;28;20123;-72
2022/11/17 09:42:40;;;;;;;7.32;6.63;;;;;;;;;;5057423;28;20040;-69
2022/11/17 09:45:16;;;;;;;7.00;6.40;;;;;;;;;;5053421;28;20139;-71
2022/11/17 09:47:46;;;;;;;7.53;6.78;;;;;;;;;;5060989;28;20487;-72
2022/11/17 09:50:21;;;;;;;9.10;7.03;;;;;;;;;;5056586;28;20499;-72
2022/11/17 09:52:55;;;;;;;7.95;7.15;;;;;;;;;;5059323;28;20102;-71
2022/11/17 09:55:39;;;;;;;8.00;7.20;;;;;;;;;;5060372;28;20059;-71
2022/11/17 09:58:07;;;;;;;8.73;7.03;;;;;;;;;;5058462;28;20055;-72
2022/11/17 10:00:34;;;;;;;7.55;6.80;;;;;;;;;;5055711;28;20040;-71
2022/11/17 10:03:00;;;;;;;7.13;6.43;;;;;;;;;;5054291;28;20040;-70
2022/11/17 10:05:28;;;;;;;9.38;7.50;;;;;;;;;;5060681;28;20067;-73
2022/11/17 10:07:56;;;;;;;8.70;6.95;;;;;;;;;;5058610;28;20040;-71
2022/11/17 10:10:28;;;;;;;7.72;7.03;;;;;;;;;;5054614;28;20087;-71
2022/11/17 10:12:58;;;;;;;7.63;6.93;;;;;;;;;;5059391;28;20135;-71
2022/11/17 10:15:29;;;;;;;7.30;6.60;;;;;;;;;;5057278;28;20053;-70
2022/11/17 10:17:55;;;;;;;7.10;6.50;;;;;;;;;;5059957;28;20040;-73
2022/11/17 10:20:21;;;;;;;7.75;6.55;;;;;;;;;;5057844;28;20114;-70
2022/11/17 10:22:47;;;;;;;7.10;6.50;;;;;;;;;;5058908;28;20135;-70
2022/11/17 10:25:35;;;;;;;7.07;5.82;;;;;;;;;;5058338;28;20104;-74
2022/11/17 10:28:01;;;;;;;27.42;21.70;;;;;;;;;;5059983;28;20198;-72
2022/11/17 10:30:27;;;;;;;12.73;10.68;;;;;;;;;;5061583;28;20131;-73
2022/11/17 10:32:54;;;;;;;10.68;7.30;;;;;;;;;;5052530;28;20049;-73
2022/11/17 10:35:22;;;;;;;7.50;6.80;;;;;;;;;;5058832;28;20541;-72
2022/11/17 10:37:54;;;;;;;7.28;6.47;;;;;;;;;;5057824;28;20036;-73
2022/11/17 10:40:25;;;;;;;7.40;6.70;;;;;;;;;;5044652;28;20052;-71
2022/11/17 10:43:10;;;;;;;9.70;7.38;;;;;;;;;;5055713;28;20119;-72
2022/11/17 10:45:36;;;;;;;10.75;7.80;;;;;;;;;;5061741;28;20041;-72
2022/11/17 10:48:09;;;;;;;7.88;7.07;;;;;;;;;;5057487;28;20514;-69
2022/11/17 10:50:35;;;;;;;7.90;7.10;;;;;;;;;;5060990;28;20503;-73
2022/11/17 10:53:21;;;;;;;7.95;7.13;;;;;;;;;;5057014;28;20040;-73
2022/11/17 10:55:52;;;;;;;6.88;6.20;;;;;;;;;;5060416;28;20159;-73
2022/11/17 10:58:23;;;;;;;7.22;6.43;;;;;;;;;;5063154;28;20066;-72
2022/11/17 11:00:54;;;;;;;6.82;6.10;;;;;;;;;;5060555;28;20037;-71
2022/11/17 11:03:22;;;;;;;7.25;6.55;;;;;;;;;;5046813;28;20051;-73
2022/11/17 11:05:55;;;;;;;6.80;6.20;;;;;;;;;;5047127;28;20045;-71
2022/11/17 11:08:24;;;;;;;7.55;6.30;;;;;;;;;;5065643;28;20079;-71
2022/11/17 11:10:51;;;;;;;6.78;6.18;;;;;;;;;;5047626;28;20045;-73
2022/11/17 11:13:27;;;;;;;6.88;6.28;;;;;;;;;;5063502;28;20043;-70
2022/11/17 11:15:53;;;;;;;7.03;6.43;;;;;;;;;;5069640;28;20127;-74
2022/11/17 11:18:19;;;;;;;6.75;6.15;;;;;;;;;;5064453;28;20128;-71
2022/11/17 11:20:52;;;;;;;6.30;5.45;;;;;;;;;;5061739;28;20048;-71
2022/11/17 11:23:37;;;;;;;5.97;5.47;;;;;;;;;;5069766;28;20518;-72
2022/11/17 11:26:08;;;;;;;6.07;4.78;;;;;;;;;;5061645;28;20429;-71
2022/11/17 11:28:54;;;;;;;6.03;5.53;;;;;;;;;;5046033;28;20045;-73
2022/11/17 11:31:39;;;;;;;5.72;5.07;;;;;;;;;;5049003;28;20370;-70
2022/11/17 11:34:22;;;;;;;17.08;12.10;;;;;;;;;;5061465;28;20086;-72
2022/11/17 11:37:21;;;;;;;6.70;6.10;;;;;;;;;;5059426;28;20063;-72
2022/11/17 11:39:55;;;;;;;6.35;5.32;;;;;;;;;;5032296;28;20045;-71
2022/11/17 11:42:31;;;;;;;6.18;5.60;;;;;;;;;;5061823;28;20044;-71
2022/11/17 11:44:56;;;;;;;7.72;5.85;;;;;;;;;;5060442;28;20515;-73
2022/11/17 11:47:41;;;;;;;6.65;5.90;;;;;;;;;;5059947;28;20047;-70
2022/11/17 11:50:17;;;;;;;7.55;6.15;;;;;;;;;;5062698;28;20040;-75
2022/11/17 11:52:45;;;;;;;6.88;6.18;;;;;;;;;;5063790;28;20055;-70
2022/11/17 11:55:23;;;;;;;6.60;6.00;;;;;;;;;;5062367;28;20504;-74
2022/11/17 11:58:10;;;;;;;7.43;6.18;;;;;;;;;;5061746;28;20053;-73
2022/11/17 12:00:36;;;;;;;6.70;6.10;;;;;;;;;;5053461;28;20067;-70
2022/11/17 12:03:08;;;;;;;7.22;6.32;;;;;;;;;;5067278;28;20323;-72
2022/11/17 12:05:41;;;;;;;7.50;6.80;;;;;;;;;;5069542;28;20380;-71
2022/11/17 12:08:17;;;;;;;10.02;7.10;;;;;;;;;;5064080;28;20040;-69
2022/11/17 12:13:16;;;;;;;7.97;6.85;;;;;;;;;;5120899;27;20043;-71
2022/11/17 12:15:42;;;;;;;7.80;7.00;;;;;;;;;;5110068;27;20133;-71
2022/11/17 12:18:18;;;;;;;9.90;7.28;;;;;;;;;;5102347;27;20620;-69
2022/11/17 12:20:51;;;;;;;9.70;6.60;;;;;;;;;;5083256;28;20402;-69
2022/11/17 12:23:16;;;;;;;7.88;5.30;;;;;;;;;;5083197;28;20043;-70
2022/11/17 12:25:47;;;;;;;12.35;4.00;;;;;;;;;;5101969;28;20046;-71
2022/11/17 12:28:31;;;;;;;8.02;2.83;;;;;;;;;;5097190;27;20161;-70
2022/11/17 12:31:01;;;;;;;9.15;2.88;;;;;;;;;;5063897;28;20148;-69
2022/11/17 12:33:59;;;;;;;8.75;2.35;;;;;;;;;;5083074;28;20394;-70
2022/11/17 12:36:30;;;;;;;5.75;2.40;;;;;;;;;;5085888;28;20127;-70
2022/11/17 12:38:56;;;;;;;7.07;2.45;;;;;;;;;;5084502;28;20574;-70
2022/11/17 12:41:41;;;;;;;5.32;2.30;;;;;;;;;;5081131;28;20043;-70
2022/11/17 12:44:26;;;;;;;6.95;2.50;;;;;;;;;;5085992;28;20052;-70
2022/11/17 12:46:55;;;;;;;6.68;2.22;;;;;;;;;;5084854;28;20640;-69
2022/11/17 12:49:30;;;;;;;6.45;2.50;;;;;;;;;;5086301;28;20497;-69
2022/11/17 12:51:59;;;;;;;7.63;2.40;;;;;;;;;;5084348;28;20048;-68
2022/11/17 12:54:42;;;;;;;5.57;2.30;;;;;;;;;;5085545;28;20104;-68
2022/11/17 12:57:23;;;;;;;7.68;2.20;;;;;;;;;;5078197;28;20592;-71
2022/11/17 12:59:52;;;;;;;6.38;2.30;;;;;;;;;;5086719;28;20126;-68
2022/11/17 13:02:30;;;;;;;6.20;2.20;;;;;;;;;;5063769;28;20039;-68
2022/11/17 13:04:58;;;;;;;8.05;2.47;;;;;;;;;;5081711;28;20048;-73
2022/11/17 13:07:25;;;;;;;4.50;2.30;;;;;;;;;;5081837;28;20036;-70
2022/11/17 13:09:53;;;;;;;8.38;2.78;;;;;;;;;;5079842;28;20047;-68
2022/11/17 13:12:23;;;;;;;6.90;2.72;;;;;;;;;;5078746;28;20044;-70
2022/11/17 13:14:57;;;;;;;9.57;2.85;;;;;;;;;;5082938;28;20047;-68
2022/11/17 13:17:27;;;;;;;5.78;2.60;;;;;;;;;;5080514;28;20056;-68
2022/11/17 13:20:00;;;;;;;5.65;2.60;;;;;;;;;;5100074;28;20086;-68
2022/11/17 13:22:27;;;;;;;6.97;2.53;;;;;;;;;;5086006;28;20136;-68
2022/11/17 13:24:53;;;;;;;8.95;2.80;;;;;;;;;;5083230;28;20112;-67
2022/11/17 13:27:27;;;;;;;6.07;2.85;;;;;;;;;;5084929;28;20055;-67
2022/11/17 13:30:11;;;;;;;8.13;2.85;;;;;;;;;;5080499;28;20490;-72
2022/11/17 13:32:41;;;;;;;9.15;2.55;;;;;;;;;;5081631;28;20417;-69
2022/11/17 13:35:26;;;;;;;7.47;2.58;;;;;;;;;;5084721;28;20040;-67
2022/11/17 13:38:04;;;;;;;4.65;2.28;;;;;;;;;;5085303;28;20039;-68
2022/11/17 13:40:31;;;;;;;4.18;2.13;;;;;;;;;;5081414;27;20035;-67
2022/11/17 13:42:57;;;;;;;4.38;1.90;;;;;;;;;;5078632;28;20050;-68
2022/11/17 13:45:23;;;;;;;6.93;2.25;;;;;;;;;;5097994;27;20052;-69
2022/11/17 13:47:50;;;;;;;4.47;2.10;;;;;;;;;;5098956;28;20040;-67
2022/11/17 13:50:28;;;;;;;8.88;2.20;;;;;;;;;;5082217;28;20090;-67
2022/11/17 13:52:56;;;;;;;5.53;1.92;;;;;;;;;;5085621;28;20043;-71
2022/11/17 13:55:22;;;;;;;7.22;1.80;;;;;;;;;;5080653;28;20136;-67
2022/11/17 13:57:56;;;;;;;7.85;2.10;;;;;;;;;;5082905;28;20043;-68
2022/11/17 14:00:23;;;;;;;6.70;2.00;;;;;;;;;;5084065;28;20032;-69
2022/11/17 14:03:12;;;;;;;6.20;2.00;;;;;;;;;;5085208;28;20058;-67
2022/11/17 14:05:53;;;;;;;5.30;1.55;;;;;;;;;;5063952;28;20127;-68
2022/11/17 14:08:26;;;;;;;6.90;2.10;;;;;;;;;;5080978;28;20055;-69
2022/11/17 14:11:03;;;;;;;6.75;1.92;;;;;;;;;;5082043;28;20047;-68
2022/11/17 14:13:30;;;;;;;4.43;1.83;;;;;;;;;;5081393;28;20039;-67
2022/11/17 14:15:58;;;;;;;7.40;1.90;;;;;;;;;;5082391;27;20089;-68
2022/11/17 14:18:37;;;;;;;4.45;1.83;;;;;;;;;;5082307;28;20133;-72
2022/11/17 14:21:08;;;;;;;6.82;1.80;;;;;;;;;;5083501;28;20086;-66
2022/11/17 14:23:34;;;;;;;7.55;1.80;;;;;;;;;;5069336;28;20040;-70
2022/11/17 14:26:00;;;;;;;4.60;1.75;;;;;;;;;;5107884;27;20067;-70
2022/11/17 14:28:26;;;;;;;3.83;1.52;;;;;;;;;;5083999;28;20097;-69
2022/11/17 14:30:53;;;;;;;8.18;1.90;;;;;;;;;;5101450;28;20486;-71
2022/11/17 14:33:19;;;;;;;8.48;2.38;;;;;;;;;;5088724;28;20055;-71
2022/11/17 14:35:47;;;;;;;4.47;1.70;;;;;;;;;;5104127;28;20422;-69
2022/11/17 14:38:15;;;;;;;41.05;3.35;;;;;;;;;;5092764;28;20047;-72
2022/11/17 14:40:41;;;;;;;12.90;2.10;;;;;;;;;;5088068;28;20514;-72
2022/11/17 14:43:07;;;;;;;7.93;1.50;;;;;;;;;;5084646;28;20517;-70
2022/11/17 14:45:34;;;;;;;5.90;2.22;;;;;;;;;;5086208;28;20135;-71
2022/11/17 14:48:01;;;;;;;9.82;1.88;;;;;;;;;;5085768;28;20058;-70
2022/11/17 14:50:27;;;;;;;6.03;1.40;;;;;;;;;;5091737;28;20048;-72
2022/11/17 14:52:54;;;;;;;6.40;1.40;;;;;;;;;;5080295;28;20044;-73
2022/11/17 14:55:20;;;;;;;3.85;1.40;;;;;;;;;;5081093;28;20051;-72
2022/11/17 14:57:47;;;;;;;4.50;1.40;;;;;;;;;;5084455;28;20040;-72
2022/11/17 15:00:14;;;;;;;4.43;1.65;;;;;;;;;;5093480;28;20048;-72
2022/11/17 15:02:40;;;;;;;6.20;1.50;;;;;;;;;;5090909;28;20040;-70
2022/11/17 15:05:06;;;;;;;7.95;1.70;;;;;;;;;;5096869;28;20043;-70
2022/11/17 15:07:32;;;;;;;4.32;1.30;;;;;;;;;;5076483;28;20036;-71
2022/11/17 15:09:59;;;;;;;9.82;1.85;;;;;;;;;;5095628;28;20039;-71
2022/11/17 15:12:25;;;;;;;16.58;2.08;;;;;;;;;;5072642;28;20461;-71